KBKE

Baker City Municipal Airport

Baker City, Oregon, USA
METAR KBKE 122053Z AUTO 34005KT 10SM FEW060 04/M06 A3025 RMK AO2 SLP262 T00441056 51016
Observed Flight Rules
Dec-12 @ 20:53 UTC (16 minutes ago) Visual Flight Rules
Wind Visibility Clouds
340° at 5 knots 10 miles
  • Few at 6,000' AGL
Temperatures Readings
Current 4°C / 39°F
Dewpoint -6°C / 21°F
Humidity 48%
Altimeter 30.25" Hg
Pressure 1026.2 hPa
Elevation 1024
METAR KBKE 122053Z AUTO 34005KT 10SM FEW060 04/M06 A3025 RMK AO2 SLP262 T00441056 51016
Observed Flight Rules
Dec-12 @ 20:53 UTC
(16 minutes ago)
VFR
Wind Visibility
340° at 5 knots 10 miles
Clouds
  • Few at 6,000' AGL
Temperature Dewpoint
4°C / 39°F -6°C / 21°F
Humidity Altimeter Pressure
48% 30.25" Hg 1026.2 hPa